Dawson, Iowa
Current Conditions -  °F | °C
As of 2:15 AM on Saturday 25 Oct 2014 (Local Time) from KPRO Reporting Station
Clear Clear  
Wind Chill: 51°   Ceiling: Unl
Heat Index: 51°   Visibility: 10mi
Dew Point: 49°   Wind: 7mph
Humidity: 92%   Direction: 280°W
Pressure: 30"   Gusts: NA
Location:  41.84°N, 94.22°W
Report Text: KPRO 250715Z AUTO 28006KT 10SM CLR 11/09 A3000 RMK AO2 T01060093
Loading
Personal Weather Stations






























Interactive Weather Map
Tropical Storm Tracking
New forecast layout! Learn more

10-Day Weather Forecast

Advertisements
Track Severe Weather on mobile